<?xml version="1.0" encoding="UTF-8" standalone="no" ?>
<gpx xmlns="http://www.topografix.com/GPX/1/1" xmlns:xsi="http://www.w3.org/2001/XMLSchema-instance" xsi:schemaLocation="http://www.topografix.com/GPX/1/1 http://www.topografix.com/GPX/1/1/gpx.xsd" version="1.1" creator="VisuGPX - https://www.visugpx.com">
  <metadata>
    <name>2022-03-29 Aix les Bain- gd port/grottes des fées/Corsuet...</name>
  </metadata>
  <trk>
    <name><![CDATA[2022-03-29 Aix les Bain- gd port/grottes des fées/Corsuet...]]></name>
    <trkseg>
      <trkpt lat="45.70491" lon="5.88615">
        <ele>234.19</ele>
        <time>2022-03-29T08:11:54Z</time>
      </trkpt>
      <trkpt lat="45.70568" lon="5.88635">
        <ele>234.34</ele>
        <time>2022-03-29T08:16:14Z</time>
      </trkpt>
      <trkpt lat="45.70633" lon="5.88761">
        <ele>234.49</ele>
        <time>2022-03-29T08:17:43Z</time>
      </trkpt>
      <trkpt lat="45.7071" lon="5.88841">
        <ele>234.48</ele>
        <time>2022-03-29T08:18:54Z</time>
      </trkpt>
      <trkpt lat="45.7075" lon="5.88957">
        <ele>234.48</ele>
        <time>2022-03-29T08:20:11Z</time>
      </trkpt>
      <trkpt lat="45.70816" lon="5.89066">
        <ele>234.78</ele>
        <time>2022-03-29T08:21:34Z</time>
      </trkpt>
      <trkpt lat="45.70899" lon="5.89068">
        <ele>235.05</ele>
        <time>2022-03-29T08:22:44Z</time>
      </trkpt>
      <trkpt lat="45.70971" lon="5.89123">
        <ele>234.96</ele>
        <time>2022-03-29T08:24:00Z</time>
      </trkpt>
      <trkpt lat="45.71051" lon="5.89141">
        <ele>234.15</ele>
        <time>2022-03-29T08:25:18Z</time>
      </trkpt>
      <trkpt lat="45.71142" lon="5.89099">
        <ele>234.13</ele>
        <time>2022-03-29T08:26:33Z</time>
      </trkpt>
      <trkpt lat="45.71229" lon="5.8904">
        <ele>234.55</ele>
        <time>2022-03-29T08:27:48Z</time>
      </trkpt>
      <trkpt lat="45.71309" lon="5.88965">
        <ele>235.16</ele>
        <time>2022-03-29T08:29:08Z</time>
      </trkpt>
      <trkpt lat="45.71403" lon="5.88901">
        <ele>233.45</ele>
        <time>2022-03-29T08:30:30Z</time>
      </trkpt>
      <trkpt lat="45.71484" lon="5.88834">
        <ele>233.77</ele>
        <time>2022-03-29T08:31:49Z</time>
      </trkpt>
      <trkpt lat="45.71557" lon="5.88756">
        <ele>234.27</ele>
        <time>2022-03-29T08:33:08Z</time>
      </trkpt>
      <trkpt lat="45.71629" lon="5.88678">
        <ele>234.08</ele>
        <time>2022-03-29T08:34:26Z</time>
      </trkpt>
      <trkpt lat="45.71693" lon="5.88601">
        <ele>235</ele>
        <time>2022-03-29T08:35:52Z</time>
      </trkpt>
      <trkpt lat="45.71767" lon="5.88525">
        <ele>234.94</ele>
        <time>2022-03-29T08:37:08Z</time>
      </trkpt>
      <trkpt lat="45.71833" lon="5.88451">
        <ele>234.9</ele>
        <time>2022-03-29T08:38:28Z</time>
      </trkpt>
      <trkpt lat="45.7191" lon="5.88379">
        <ele>235.16</ele>
        <time>2022-03-29T08:39:48Z</time>
      </trkpt>
      <trkpt lat="45.71979" lon="5.88295">
        <ele>235.8</ele>
        <time>2022-03-29T08:41:07Z</time>
      </trkpt>
      <trkpt lat="45.72041" lon="5.88203">
        <ele>237.5</ele>
        <time>2022-03-29T08:42:27Z</time>
      </trkpt>
      <trkpt lat="45.72082" lon="5.88179">
        <ele>238.1</ele>
        <time>2022-03-29T08:46:58Z</time>
      </trkpt>
      <trkpt lat="45.72195" lon="5.88087">
        <ele>242.45</ele>
        <time>2022-03-29T08:49:09Z</time>
      </trkpt>
      <trkpt lat="45.72269" lon="5.88172">
        <ele>249.4</ele>
        <time>2022-03-29T08:50:38Z</time>
      </trkpt>
      <trkpt lat="45.72352" lon="5.88252">
        <ele>256.09</ele>
        <time>2022-03-29T08:52:16Z</time>
      </trkpt>
      <trkpt lat="45.72406" lon="5.88361">
        <ele>271.12</ele>
        <time>2022-03-29T08:55:17Z</time>
      </trkpt>
      <trkpt lat="45.72483" lon="5.88385">
        <ele>278.77</ele>
        <time>2022-03-29T08:56:43Z</time>
      </trkpt>
      <trkpt lat="45.72496" lon="5.88493">
        <ele>288.99</ele>
        <time>2022-03-29T08:58:08Z</time>
      </trkpt>
      <trkpt lat="45.72442" lon="5.88591">
        <ele>287.97</ele>
        <time>2022-03-29T08:59:27Z</time>
      </trkpt>
      <trkpt lat="45.72463" lon="5.88724">
        <ele>290.79</ele>
        <time>2022-03-29T09:00:48Z</time>
      </trkpt>
      <trkpt lat="45.72546" lon="5.88798">
        <ele>293.23</ele>
        <time>2022-03-29T09:02:10Z</time>
      </trkpt>
      <trkpt lat="45.72618" lon="5.88786">
        <ele>294.53</ele>
        <time>2022-03-29T09:04:23Z</time>
      </trkpt>
      <trkpt lat="45.72658" lon="5.8888">
        <ele>296</ele>
        <time>2022-03-29T09:05:56Z</time>
      </trkpt>
      <trkpt lat="45.72686" lon="5.88866">
        <ele>295.93</ele>
        <time>2022-03-29T09:07:54Z</time>
      </trkpt>
      <trkpt lat="45.72761" lon="5.8887">
        <ele>292.71</ele>
        <time>2022-03-29T09:10:11Z</time>
      </trkpt>
      <trkpt lat="45.72752" lon="5.89005">
        <ele>284.19</ele>
        <time>2022-03-29T09:11:44Z</time>
      </trkpt>
      <trkpt lat="45.72741" lon="5.89156">
        <ele>275.75</ele>
        <time>2022-03-29T09:13:24Z</time>
      </trkpt>
      <trkpt lat="45.72771" lon="5.89286">
        <ele>268.23</ele>
        <time>2022-03-29T09:14:55Z</time>
      </trkpt>
      <trkpt lat="45.72815" lon="5.89423">
        <ele>269.48</ele>
        <time>2022-03-29T09:16:21Z</time>
      </trkpt>
      <trkpt lat="45.72909" lon="5.89508">
        <ele>275.08</ele>
        <time>2022-03-29T09:17:59Z</time>
      </trkpt>
      <trkpt lat="45.73057" lon="5.8964">
        <ele>295.48</ele>
        <time>2022-03-29T09:20:43Z</time>
      </trkpt>
      <trkpt lat="45.73171" lon="5.89709">
        <ele>312.81</ele>
        <time>2022-03-29T09:22:43Z</time>
      </trkpt>
      <trkpt lat="45.73291" lon="5.8972">
        <ele>330.29</ele>
        <time>2022-03-29T09:25:24Z</time>
      </trkpt>
      <trkpt lat="45.73292" lon="5.89758">
        <ele>344.16</ele>
        <time>2022-03-29T09:31:40Z</time>
      </trkpt>
      <trkpt lat="45.73398" lon="5.89771">
        <ele>374.11</ele>
        <time>2022-03-29T09:34:43Z</time>
      </trkpt>
      <trkpt lat="45.73548" lon="5.89777">
        <ele>389.7</ele>
        <time>2022-03-29T09:37:16Z</time>
      </trkpt>
      <trkpt lat="45.73652" lon="5.89832">
        <ele>421.98</ele>
        <time>2022-03-29T09:40:16Z</time>
      </trkpt>
      <trkpt lat="45.73629" lon="5.89879">
        <ele>440.6</ele>
        <time>2022-03-29T09:44:47Z</time>
      </trkpt>
      <trkpt lat="45.73539" lon="5.89926">
        <ele>443.11</ele>
        <time>2022-03-29T09:47:22Z</time>
      </trkpt>
      <trkpt lat="45.73433" lon="5.89969">
        <ele>446</ele>
        <time>2022-03-29T09:51:37Z</time>
      </trkpt>
      <trkpt lat="45.73313" lon="5.9001">
        <ele>433.98</ele>
        <time>2022-03-29T09:53:28Z</time>
      </trkpt>
      <trkpt lat="45.73222" lon="5.8998">
        <ele>424.73</ele>
        <time>2022-03-29T09:56:02Z</time>
      </trkpt>
      <trkpt lat="45.73203" lon="5.89996">
        <ele>431.17</ele>
        <time>2022-03-29T10:00:03Z</time>
      </trkpt>
      <trkpt lat="45.73148" lon="5.89918">
        <ele>422.76</ele>
        <time>2022-03-29T10:02:03Z</time>
      </trkpt>
      <trkpt lat="45.73023" lon="5.89904">
        <ele>421.09</ele>
        <time>2022-03-29T10:03:41Z</time>
      </trkpt>
      <trkpt lat="45.72913" lon="5.89902">
        <ele>415.96</ele>
        <time>2022-03-29T10:05:40Z</time>
      </trkpt>
      <trkpt lat="45.728" lon="5.89872">
        <ele>406.5</ele>
        <time>2022-03-29T10:07:23Z</time>
      </trkpt>
      <trkpt lat="45.72795" lon="5.89908">
        <ele>411.51</ele>
        <time>2022-03-29T10:10:09Z</time>
      </trkpt>
      <trkpt lat="45.72911" lon="5.89983">
        <ele>437.14</ele>
        <time>2022-03-29T10:13:06Z</time>
      </trkpt>
      <trkpt lat="45.72991" lon="5.90037">
        <ele>470.09</ele>
        <time>2022-03-29T10:16:25Z</time>
      </trkpt>
      <trkpt lat="45.73074" lon="5.90098">
        <ele>504.23</ele>
        <time>2022-03-29T10:19:54Z</time>
      </trkpt>
      <trkpt lat="45.73153" lon="5.90163">
        <ele>532.34</ele>
        <time>2022-03-29T10:24:18Z</time>
      </trkpt>
      <trkpt lat="45.7323" lon="5.90194">
        <ele>554.53</ele>
        <time>2022-03-29T10:28:35Z</time>
      </trkpt>
      <trkpt lat="45.73293" lon="5.90242">
        <ele>575.89</ele>
        <time>2022-03-29T10:32:00Z</time>
      </trkpt>
      <trkpt lat="45.73376" lon="5.90315">
        <ele>597.99</ele>
        <time>2022-03-29T10:34:43Z</time>
      </trkpt>
      <trkpt lat="45.73467" lon="5.90365">
        <ele>624.32</ele>
        <time>2022-03-29T10:37:21Z</time>
      </trkpt>
      <trkpt lat="45.73548" lon="5.90381">
        <ele>643.82</ele>
        <time>2022-03-29T11:05:22Z</time>
      </trkpt>
      <trkpt lat="45.73554" lon="5.90377">
        <ele>632.52</ele>
        <time>2022-03-29T11:06:59Z</time>
      </trkpt>
      <trkpt lat="45.73543" lon="5.90466">
        <ele>645.09</ele>
        <time>2022-03-29T11:10:36Z</time>
      </trkpt>
      <trkpt lat="45.73472" lon="5.90594">
        <ele>639.85</ele>
        <time>2022-03-29T11:13:03Z</time>
      </trkpt>
      <trkpt lat="45.73346" lon="5.90693">
        <ele>628.78</ele>
        <time>2022-03-29T11:15:20Z</time>
      </trkpt>
      <trkpt lat="45.73275" lon="5.90857">
        <ele>615.45</ele>
        <time>2022-03-29T11:17:24Z</time>
      </trkpt>
      <trkpt lat="45.73167" lon="5.90883">
        <ele>605.04</ele>
        <time>2022-03-29T11:19:11Z</time>
      </trkpt>
      <trkpt lat="45.73037" lon="5.90839">
        <ele>585.19</ele>
        <time>2022-03-29T11:21:28Z</time>
      </trkpt>
      <trkpt lat="45.72895" lon="5.90778">
        <ele>562.71</ele>
        <time>2022-03-29T11:24:03Z</time>
      </trkpt>
      <trkpt lat="45.72761" lon="5.90747">
        <ele>543.05</ele>
        <time>2022-03-29T11:26:18Z</time>
      </trkpt>
      <trkpt lat="45.7265" lon="5.90744">
        <ele>518.3</ele>
        <time>2022-03-29T11:29:17Z</time>
      </trkpt>
      <trkpt lat="45.72586" lon="5.90801">
        <ele>527.02</ele>
        <time>2022-03-29T11:32:35Z</time>
      </trkpt>
      <trkpt lat="45.7245" lon="5.90798">
        <ele>508.28</ele>
        <time>2022-03-29T11:35:21Z</time>
      </trkpt>
      <trkpt lat="45.72331" lon="5.90812">
        <ele>510.03</ele>
        <time>2022-03-29T11:37:28Z</time>
      </trkpt>
      <trkpt lat="45.72215" lon="5.90754">
        <ele>518.64</ele>
        <time>2022-03-29T11:39:26Z</time>
      </trkpt>
      <trkpt lat="45.72155" lon="5.90763">
        <ele>527.41</ele>
        <time>2022-03-29T11:41:57Z</time>
      </trkpt>
      <trkpt lat="45.72219" lon="5.90853">
        <ele>543.59</ele>
        <time>2022-03-29T11:44:27Z</time>
      </trkpt>
      <trkpt lat="45.72336" lon="5.90892">
        <ele>550.25</ele>
        <time>2022-03-29T11:46:29Z</time>
      </trkpt>
      <trkpt lat="45.72341" lon="5.90899">
        <ele>552.2</ele>
        <time>2022-03-29T11:57:01Z</time>
      </trkpt>
      <trkpt lat="45.72218" lon="5.90848">
        <ele>544.49</ele>
        <time>2022-03-29T11:59:18Z</time>
      </trkpt>
      <trkpt lat="45.72169" lon="5.90766">
        <ele>531.57</ele>
        <time>2022-03-29T12:01:27Z</time>
      </trkpt>
      <trkpt lat="45.72081" lon="5.90744">
        <ele>521.56</ele>
        <time>2022-03-29T12:03:38Z</time>
      </trkpt>
      <trkpt lat="45.72052" lon="5.90687">
        <ele>525.41</ele>
        <time>2022-03-29T12:05:58Z</time>
      </trkpt>
      <trkpt lat="45.71958" lon="5.90569">
        <ele>521.94</ele>
        <time>2022-03-29T12:07:38Z</time>
      </trkpt>
      <trkpt lat="45.71956" lon="5.90566">
        <ele>521.35</ele>
        <time>2022-03-29T12:10:11Z</time>
      </trkpt>
      <trkpt lat="45.72031" lon="5.90629">
        <ele>527.52</ele>
        <time>2022-03-29T12:12:54Z</time>
      </trkpt>
      <trkpt lat="45.72027" lon="5.90824">
        <ele>514.71</ele>
        <time>2022-03-29T12:15:06Z</time>
      </trkpt>
      <trkpt lat="45.71936" lon="5.90906">
        <ele>494.31</ele>
        <time>2022-03-29T12:16:49Z</time>
      </trkpt>
      <trkpt lat="45.71844" lon="5.90914">
        <ele>492.74</ele>
        <time>2022-03-29T12:18:33Z</time>
      </trkpt>
      <trkpt lat="45.71745" lon="5.90897">
        <ele>493.49</ele>
        <time>2022-03-29T12:20:17Z</time>
      </trkpt>
      <trkpt lat="45.71656" lon="5.90855">
        <ele>493.83</ele>
        <time>2022-03-29T12:21:37Z</time>
      </trkpt>
      <trkpt lat="45.71577" lon="5.90766">
        <ele>494.41</ele>
        <time>2022-03-29T12:23:09Z</time>
      </trkpt>
      <trkpt lat="45.71488" lon="5.90764">
        <ele>473.28</ele>
        <time>2022-03-29T12:25:08Z</time>
      </trkpt>
      <trkpt lat="45.71424" lon="5.90693">
        <ele>448.58</ele>
        <time>2022-03-29T12:27:28Z</time>
      </trkpt>
      <trkpt lat="45.71316" lon="5.90694">
        <ele>430.58</ele>
        <time>2022-03-29T12:29:20Z</time>
      </trkpt>
      <trkpt lat="45.71209" lon="5.90656">
        <ele>421.13</ele>
        <time>2022-03-29T12:31:00Z</time>
      </trkpt>
      <trkpt lat="45.71126" lon="5.90556">
        <ele>408.61</ele>
        <time>2022-03-29T12:32:45Z</time>
      </trkpt>
      <trkpt lat="45.7114" lon="5.90399">
        <ele>392.58</ele>
        <time>2022-03-29T12:34:32Z</time>
      </trkpt>
      <trkpt lat="45.71044" lon="5.90388">
        <ele>377.23</ele>
        <time>2022-03-29T12:36:30Z</time>
      </trkpt>
      <trkpt lat="45.70939" lon="5.90401">
        <ele>365.54</ele>
        <time>2022-03-29T12:38:29Z</time>
      </trkpt>
      <trkpt lat="45.70923" lon="5.90521">
        <ele>355.14</ele>
        <time>2022-03-29T12:40:27Z</time>
      </trkpt>
      <trkpt lat="45.70878" lon="5.90404">
        <ele>345.03</ele>
        <time>2022-03-29T12:41:50Z</time>
      </trkpt>
      <trkpt lat="45.70795" lon="5.90357">
        <ele>325.18</ele>
        <time>2022-03-29T12:43:55Z</time>
      </trkpt>
      <trkpt lat="45.70712" lon="5.90409">
        <ele>306.16</ele>
        <time>2022-03-29T12:45:46Z</time>
      </trkpt>
      <trkpt lat="45.70654" lon="5.90503">
        <ele>283.87</ele>
        <time>2022-03-29T12:47:59Z</time>
      </trkpt>
      <trkpt lat="45.70639" lon="5.90519">
        <ele>283.59</ele>
        <time>2022-03-29T12:48:38Z</time>
      </trkpt>
      <trkpt lat="45.70634" lon="5.90524">
        <ele>248.26</ele>
        <time>2022-03-29T07:45:50Z</time>
      </trkpt>
      <trkpt lat="45.7059" lon="5.90398">
        <ele>247.23</ele>
        <time>2022-03-29T07:47:39Z</time>
      </trkpt>
      <trkpt lat="45.70546" lon="5.90282">
        <ele>246.4</ele>
        <time>2022-03-29T07:48:48Z</time>
      </trkpt>
      <trkpt lat="45.70499" lon="5.90203">
        <ele>244.81</ele>
        <time>2022-03-29T07:49:58Z</time>
      </trkpt>
      <trkpt lat="45.7045" lon="5.90096">
        <ele>244.15</ele>
        <time>2022-03-29T07:51:03Z</time>
      </trkpt>
      <trkpt lat="45.70398" lon="5.8998">
        <ele>243.85</ele>
        <time>2022-03-29T07:52:14Z</time>
      </trkpt>
      <trkpt lat="45.70355" lon="5.8987">
        <ele>243.1</ele>
        <time>2022-03-29T07:53:21Z</time>
      </trkpt>
      <trkpt lat="45.70296" lon="5.89773">
        <ele>242.45</ele>
        <time>2022-03-29T07:54:30Z</time>
      </trkpt>
      <trkpt lat="45.70236" lon="5.89672">
        <ele>241.36</ele>
        <time>2022-03-29T07:55:40Z</time>
      </trkpt>
      <trkpt lat="45.70187" lon="5.89563">
        <ele>240.39</ele>
        <time>2022-03-29T07:56:54Z</time>
      </trkpt>
      <trkpt lat="45.70158" lon="5.89433">
        <ele>238.64</ele>
        <time>2022-03-29T07:58:33Z</time>
      </trkpt>
      <trkpt lat="45.70132" lon="5.89306">
        <ele>239.19</ele>
        <time>2022-03-29T07:59:50Z</time>
      </trkpt>
      <trkpt lat="45.70127" lon="5.89181">
        <ele>239.29</ele>
        <time>2022-03-29T08:01:05Z</time>
      </trkpt>
      <trkpt lat="45.70123" lon="5.89046">
        <ele>237.2</ele>
        <time>2022-03-29T08:02:32Z</time>
      </trkpt>
      <trkpt lat="45.70126" lon="5.88871">
        <ele>236.05</ele>
        <time>2022-03-29T08:03:59Z</time>
      </trkpt>
      <trkpt lat="45.7013" lon="5.88717">
        <ele>235.28</ele>
        <time>2022-03-29T08:05:24Z</time>
      </trkpt>
      <trkpt lat="45.70153" lon="5.88564">
        <ele>235.54</ele>
        <time>2022-03-29T08:06:54Z</time>
      </trkpt>
      <trkpt lat="45.70247" lon="5.88571">
        <ele>234.26</ele>
        <time>2022-03-29T08:08:05Z</time>
      </trkpt>
      <trkpt lat="45.70315" lon="5.88507">
        <ele>234.05</ele>
        <time>2022-03-29T08:09:21Z</time>
      </trkpt>
      <trkpt lat="45.70408" lon="5.88546">
        <ele>234</ele>
        <time>2022-03-29T08:10:37Z</time>
      </trkpt>
      <trkpt lat="45.70491" lon="5.88615">
        <ele>234.19</ele>
        <time>2022-03-29T08:11:54Z</time>
      </trkpt>
    </trkseg>
  </trk>
</gpx>